createdAt,value
2022-10-29T00:00:58.150Z,46.30
2022-10-29T00:03:26.619Z,47.40
2022-10-29T00:05:59.351Z,39.55
2022-10-29T00:08:26.964Z,45.25
2022-10-29T00:10:54.046Z,47.47
2022-10-29T00:13:21.287Z,41.65
2022-10-29T00:15:48.393Z,42.78
2022-10-29T00:18:15.560Z,45.33
2022-10-29T00:20:42.631Z,41.22
2022-10-29T00:23:09.745Z,42.67
2022-10-29T00:25:36.784Z,41.13
2022-10-29T00:28:03.904Z,41.17
2022-10-29T00:30:31.056Z,43.65
2022-10-29T00:32:58.296Z,44.08
2022-10-29T00:35:26.295Z,43.03
2022-10-29T00:37:53.626Z,37.95
2022-10-29T00:40:21.032Z,36.97
2022-10-29T00:42:48.180Z,33.22
2022-10-29T00:45:20.915Z,31.65
2022-10-29T00:47:53.082Z,30.50
2022-10-29T00:50:22.077Z,30.98
2022-10-29T00:52:50.635Z,31.10
2022-10-29T00:55:19.541Z,29.40
2022-10-29T00:57:53.561Z,27.40
2022-10-29T01:00:21.988Z,29.08
2022-10-29T01:02:49.695Z,30.00
2022-10-29T01:05:21.542Z,24.38
2022-10-29T01:07:48.876Z,29.80
2022-10-29T01:10:22.786Z,30.40
2022-10-29T01:13:54.004Z,27.83
2022-10-29T01:16:39.068Z,26.38
2022-10-29T01:19:37.668Z,30.40
2022-10-29T01:22:29.216Z,25.75
2022-10-29T01:26:11.934Z,29.42
2022-10-29T01:28:56.183Z,31.83
2022-10-29T01:31:38.912Z,28.50
2022-10-29T01:34:40.884Z,29.05
2022-10-29T01:37:28.747Z,25.75
2022-10-29T01:40:36.233Z,24.23
2022-10-29T01:43:14.221Z,29.27
2022-10-29T01:45:54.506Z,26.95
2022-10-29T01:48:33.170Z,24.98
2022-10-29T01:51:12.040Z,25.67
2022-10-29T01:53:40.410Z,25.65
2022-10-29T01:56:07.657Z,23.13
2022-10-29T01:58:37.882Z,27.35
2022-10-29T02:01:32.209Z,26.63
2022-10-29T02:04:21.621Z,27.02
2022-10-29T02:07:26.768Z,26.08
2022-10-29T02:10:14.553Z,28.00
2022-10-29T02:12:51.946Z,31.40
2022-10-29T02:15:25.906Z,28.85
2022-10-29T02:17:53.383Z,29.00
2022-10-29T02:20:20.798Z,28.13
2022-10-29T02:22:47.884Z,31.70
2022-10-29T02:25:15.565Z,29.48
2022-10-29T02:27:42.663Z,28.52
2022-10-29T02:30:10.370Z,32.15
2022-10-29T02:32:38.532Z,27.92
2022-10-29T02:35:06.258Z,31.08
2022-10-29T02:37:33.383Z,33.80
2022-10-29T02:40:00.436Z,33.83
2022-10-29T02:42:27.477Z,30.05
2022-10-29T02:44:54.506Z,27.52
2022-10-29T02:47:21.569Z,34.17
2022-10-29T02:49:48.588Z,30.58
2022-10-29T02:52:15.664Z,28.48
2022-10-29T02:54:43.016Z,23.60
2022-10-29T02:57:10.075Z,25.60
2022-10-29T02:59:37.320Z,29.73
2022-10-29T03:02:04.508Z,30.70
2022-10-29T03:04:31.644Z,27.92
2022-10-29T03:06:58.955Z,32.50
2022-10-29T03:09:26.168Z,25.17
2022-10-29T03:11:53.251Z,26.52
2022-10-29T03:14:20.311Z,23.20
2022-10-29T03:16:47.346Z,27.58
2022-10-29T03:19:14.398Z,23.15
2022-10-29T03:21:41.484Z,23.33
2022-10-29T03:24:08.662Z,27.48
2022-10-29T03:26:35.683Z,23.67
2022-10-29T03:29:02.805Z,28.35
2022-10-29T03:31:29.839Z,27.23
2022-10-29T03:33:56.980Z,31.50
2022-10-29T03:36:24.104Z,27.40
2022-10-29T03:38:51.192Z,31.50
2022-10-29T03:41:18.277Z,28.38
2022-10-29T03:43:45.414Z,37.05
2022-10-29T03:46:12.503Z,25.98
2022-10-29T03:48:39.554Z,28.60
2022-10-29T03:51:07.748Z,29.50
2022-10-29T03:53:37.155Z,25.15
2022-10-29T03:56:05.444Z,23.77
2022-10-29T03:58:32.752Z,26.05
2022-10-29T04:01:03.115Z,24.13
2022-10-29T04:03:32.362Z,21.92
2022-10-29T04:06:02.443Z,27.88
2022-10-29T04:08:30.145Z,23.45
2022-10-29T04:10:57.176Z,29.70
2022-10-29T04:13:24.253Z,30.75
2022-10-29T04:15:55.575Z,21.95
2022-10-29T04:18:24.365Z,25.52
2022-10-29T04:29:12.665Z,31.60
2022-10-29T04:31:39.981Z,23.63
2022-10-29T04:34:07.135Z,23.45
2022-10-29T04:36:34.243Z,23.63
2022-10-29T04:39:01.409Z,24.13
2022-10-29T04:41:28.728Z,22.90
2022-10-29T04:43:55.801Z,20.88
2022-10-29T04:46:22.881Z,24.52
2022-10-29T04:48:50.009Z,27.73
2022-10-29T04:51:26.044Z,27.70
2022-10-29T04:53:53.418Z,23.83
2022-10-29T04:56:20.578Z,23.23
2022-10-29T04:58:50.948Z,23.83
2022-10-29T05:01:18.475Z,28.30
2022-10-29T05:03:45.692Z,26.35
2022-10-29T05:06:12.837Z,29.85
2022-10-29T05:08:39.892Z,26.05
2022-10-29T05:11:07.495Z,23.75
2022-10-29T05:13:35.448Z,26.52
2022-10-29T05:16:02.665Z,27.77
2022-10-29T05:18:29.723Z,25.80
2022-10-29T05:20:57.910Z,27.70
2022-10-29T05:23:25.210Z,26.05
2022-10-29T05:25:52.597Z,26.05
2022-10-29T05:28:22.720Z,31.92
2022-10-29T05:30:52.494Z,27.42
2022-10-29T05:33:24.856Z,29.30
2022-10-29T05:35:52.662Z,30.23
2022-10-29T05:38:20.097Z,24.45
2022-10-29T05:40:47.347Z,30.88
2022-10-29T05:43:18.036Z,29.75
2022-10-29T05:45:45.734Z,25.88
2022-10-29T05:48:13.507Z,26.85
2022-10-29T05:50:40.898Z,26.63
2022-10-29T05:53:12.597Z,27.15
2022-10-29T05:55:40.083Z,27.27
2022-10-29T05:58:11.960Z,26.23
2022-10-29T06:00:43.175Z,30.45
2022-10-29T06:03:16.694Z,32.63
2022-10-29T06:05:43.838Z,32.80
2022-10-29T06:08:10.948Z,26.98
2022-10-29T06:10:38.096Z,37.25
2022-10-29T06:13:18.355Z,32.47
2022-10-29T06:15:47.332Z,30.98
2022-10-29T06:18:15.397Z,36.25
2022-10-29T06:20:43.756Z,32.00
2022-10-29T06:23:11.740Z,30.13
2022-10-29T06:25:38.893Z,32.72
2022-10-29T06:28:19.103Z,34.40
2022-10-29T06:30:49.248Z,38.10
2022-10-29T06:33:18.373Z,33.75
2022-10-29T06:35:45.985Z,34.90
2022-10-29T06:38:13.678Z,31.90
2022-10-29T06:40:41.779Z,36.33
2022-10-29T06:43:12.035Z,39.17
2022-10-29T06:45:39.302Z,37.28
2022-10-29T06:48:06.859Z,39.90
2022-10-29T06:50:34.329Z,40.33
2022-10-29T06:53:07.484Z,40.83
2022-10-29T06:55:34.966Z,39.55
2022-10-29T06:58:10.944Z,37.03
2022-10-29T07:00:38.152Z,40.55
2022-10-29T07:03:05.571Z,41.97
2022-10-29T07:05:33.688Z,38.90
2022-10-29T07:08:01.962Z,35.08
2022-10-29T07:10:31.869Z,44.83
2022-10-29T07:12:59.342Z,37.38
2022-10-29T07:15:29.558Z,38.05
2022-10-29T07:18:03.083Z,36.67
2022-10-29T07:20:33.618Z,31.70
2022-10-29T07:23:01.552Z,32.47
2022-10-29T07:25:30.003Z,28.63
2022-10-29T07:28:10.494Z,38.42
2022-10-29T07:30:37.672Z,34.10
2022-10-29T07:33:04.938Z,32.35
2022-10-29T07:35:34.249Z,33.50
2022-10-29T07:38:07.100Z,34.80
2022-10-29T07:40:36.219Z,27.90
2022-10-29T07:43:03.272Z,31.60
2022-10-29T07:45:30.442Z,32.10
2022-10-29T07:48:03.436Z,27.58
2022-10-29T07:50:32.205Z,27.83
2022-10-29T07:53:03.217Z,23.70
2022-10-29T07:58:10.073Z,24.98
2022-10-29T08:00:39.602Z,30.45
2022-10-29T08:03:07.283Z,28.80
2022-10-29T08:05:35.044Z,25.35
2022-10-29T08:08:02.301Z,26.13
2022-10-29T08:10:30.848Z,23.13
2022-10-29T08:13:01.727Z,22.80
2022-10-29T08:15:31.370Z,24.85
2022-10-29T08:17:59.748Z,23.92
2022-10-29T08:20:28.786Z,22.77
2022-10-29T08:22:58.489Z,23.70
2022-10-29T08:25:26.224Z,24.10
2022-10-29T08:28:05.060Z,23.38
2022-10-29T08:30:33.142Z,19.10
2022-10-29T08:33:01.066Z,24.80
2022-10-29T08:35:28.901Z,19.15
2022-10-29T08:37:56.202Z,21.83
2022-10-29T08:40:59.076Z,20.90
2022-10-29T08:43:46.972Z,22.83
2022-10-29T08:47:09.215Z,23.77
2022-10-29T08:50:23.398Z,23.98
2022-10-29T08:52:58.686Z,22.48
2022-10-29T08:55:37.333Z,22.65
2022-10-29T08:58:21.640Z,22.73
2022-10-29T09:00:59.871Z,20.80
2022-10-29T09:03:30.029Z,20.55
2022-10-29T09:06:24.195Z,17.75
2022-10-29T09:09:21.273Z,15.50
2022-10-29T09:12:13.676Z,17.90
2022-10-29T09:14:53.351Z,17.02
2022-10-29T09:17:38.703Z,19.38
2022-10-29T09:20:20.843Z,17.60
2022-10-29T09:23:53.500Z,17.85
2022-10-29T09:26:52.668Z,18.15
2022-10-29T09:29:34.276Z,16.60
2022-10-29T09:32:08.934Z,20.52
2022-10-29T09:34:52.347Z,19.80
2022-10-29T09:37:54.661Z,22.80
2022-10-29T09:40:38.963Z,24.35
2022-10-29T09:43:32.361Z,20.90
2022-10-29T09:46:37.051Z,25.48
2022-10-29T09:49:39.181Z,23.27
2022-10-29T09:52:24.341Z,28.42
2022-10-29T09:54:53.501Z,32.47
2022-10-29T09:57:29.376Z,30.17
2022-10-29T10:00:04.821Z,30.45
2022-10-29T10:02:36.294Z,31.63
2022-10-29T10:05:25.934Z,30.20
2022-10-29T10:08:09.609Z,38.72
2022-10-29T10:10:53.629Z,33.78
2022-10-29T10:13:29.137Z,30.63
2022-10-29T10:16:02.119Z,37.53
2022-10-29T10:18:31.993Z,33.60
2022-10-29T10:21:27.486Z,35.03
2022-10-29T10:23:57.701Z,31.73
2022-10-29T10:26:43.169Z,33.60
2022-10-29T10:29:10.978Z,34.28
2022-10-29T10:31:39.886Z,34.00
2022-10-29T10:34:23.562Z,37.38
2022-10-29T10:37:07.359Z,33.70
2022-10-29T10:39:39.390Z,33.83
2022-10-29T10:42:39.477Z,34.70
2022-10-29T10:45:40.234Z,33.05
2022-10-29T10:48:14.655Z,36.33
2022-10-29T10:50:41.810Z,47.03
2022-10-29T10:53:22.428Z,59.85
2022-10-29T10:55:58.042Z,55.88
2022-10-29T10:58:39.234Z,51.65
2022-10-29T11:01:14.209Z,50.72
2022-10-29T11:03:48.993Z,50.75
2022-10-29T11:06:27.798Z,50.90
2022-10-29T11:09:12.801Z,55.17
2022-10-29T11:12:25.861Z,56.95
2022-10-29T11:15:14.021Z,59.95
2022-10-29T11:18:03.215Z,56.35
2022-10-29T11:20:37.101Z,61.05
2022-10-29T11:23:34.342Z,58.28
2022-10-29T11:26:13.314Z,59.88
2022-10-29T11:29:09.433Z,60.35
2022-10-29T11:32:19.610Z,69.10
2022-10-29T11:35:13.953Z,68.03
2022-10-29T11:37:48.083Z,71.57
2022-10-29T11:40:50.857Z,60.80
2022-10-29T11:43:21.477Z,50.63
2022-10-29T11:46:17.379Z,48.92
2022-10-29T11:48:50.974Z,43.65
2022-10-29T11:51:27.781Z,46.90
2022-10-29T11:54:37.916Z,48.25
2022-10-29T11:57:47.129Z,47.08
2022-10-29T12:00:17.582Z,45.05
2022-10-29T12:03:15.428Z,44.47
2022-10-29T12:05:59.785Z,44.58
2022-10-29T12:08:51.206Z,50.22
2022-10-29T12:11:45.642Z,54.08
2022-10-29T12:14:25.250Z,52.33
2022-10-29T12:17:10.318Z,48.30
2022-10-29T12:20:23.526Z,49.63
2022-10-29T12:23:04.329Z,32.47
2022-10-29T12:25:41.527Z,35.80
2022-10-29T12:28:36.343Z,36.58
2022-10-29T12:31:29.243Z,38.05
2022-10-29T12:34:34.062Z,45.67
2022-10-29T12:37:48.713Z,38.17
2022-10-29T12:40:24.841Z,37.88
2022-10-29T12:42:53.119Z,33.15
2022-10-29T12:46:19.445Z,41.65
2022-10-29T12:48:50.352Z,63.28
2022-10-29T12:51:27.633Z,53.08
2022-10-29T12:54:34.025Z,42.53
2022-10-29T12:57:19.534Z,38.53
2022-10-29T12:59:46.600Z,42.33
2022-10-29T13:02:28.381Z,35.47
2022-10-29T13:05:09.728Z,34.60
2022-10-29T13:07:59.443Z,32.92
2022-10-29T13:10:36.023Z,35.03
2022-10-29T13:13:20.372Z,36.40
2022-10-29T13:16:01.906Z,39.50
2022-10-29T13:18:41.667Z,31.48
2022-10-29T13:21:09.534Z,33.08
2022-10-29T13:23:37.978Z,33.47
2022-10-29T13:26:08.936Z,28.92
2022-10-29T13:28:35.861Z,25.92
2022-10-29T13:31:08.869Z,33.15
2022-10-29T13:33:38.790Z,28.15
2022-10-29T13:36:15.346Z,36.15
2022-10-29T13:39:04.964Z,31.52
2022-10-29T13:41:44.282Z,30.85
2022-10-29T13:44:23.034Z,30.55
2022-10-29T13:47:03.490Z,26.30
2022-10-29T13:49:45.245Z,23.75
2022-10-29T13:52:19.240Z,26.67
2022-10-29T13:55:05.223Z,25.98
2022-10-29T14:00:06.925Z,25.33
2022-10-29T14:02:39.062Z,31.10
2022-10-29T14:05:21.588Z,30.45
2022-10-29T14:08:35.257Z,35.50
2022-10-29T14:11:22.418Z,29.95
2022-10-29T14:13:53.192Z,30.38
2022-10-29T14:16:29.218Z,30.33
2022-10-29T14:18:56.341Z,33.17
2022-10-29T14:21:29.902Z,30.50
2022-10-29T14:24:04.268Z,36.28
2022-10-29T14:26:35.609Z,41.03
2022-10-29T14:29:25.663Z,35.33
2022-10-29T14:32:18.569Z,31.80
2022-10-29T14:34:50.441Z,30.73
2022-10-29T14:37:25.722Z,34.65
2022-10-29T14:40:01.277Z,35.67
2022-10-29T14:42:40.414Z,33.58
2022-10-29T14:45:19.705Z,24.73
2022-10-29T14:47:57.402Z,27.65
2022-10-29T14:50:27.945Z,29.60
2022-10-29T14:53:08.590Z,25.33
2022-10-29T14:55:42.047Z,31.05
2022-10-29T14:58:12.211Z,23.30
2022-10-29T15:00:50.539Z,30.88
2022-10-29T15:03:23.664Z,27.10
2022-10-29T15:05:51.210Z,24.02
2022-10-29T15:08:29.560Z,32.22
2022-10-29T15:10:58.266Z,32.20
2022-10-29T15:13:34.569Z,28.95
2022-10-29T15:16:18.596Z,30.98
2022-10-29T15:18:54.079Z,30.27
2022-10-29T15:21:33.146Z,30.17
2022-10-29T15:24:06.572Z,33.95
2022-10-29T15:26:43.655Z,31.38
2022-10-29T15:29:12.571Z,29.58
2022-10-29T15:31:53.724Z,27.05
2022-10-29T15:34:37.582Z,30.73
2022-10-29T15:37:19.647Z,29.10
2022-10-29T15:40:12.297Z,31.67
2022-10-29T15:42:40.488Z,38.72
2022-10-29T15:45:07.559Z,30.02
2022-10-29T15:47:37.338Z,28.33
2022-10-29T15:50:09.476Z,30.50
2022-10-29T15:52:47.770Z,33.40
2022-10-29T15:55:30.973Z,30.23
2022-10-29T15:58:17.785Z,30.00
2022-10-29T16:00:44.918Z,28.75
2022-10-29T16:03:26.619Z,29.90
2022-10-29T16:06:06.377Z,26.33
2022-10-29T16:08:47.674Z,25.45
2022-10-29T16:11:22.342Z,32.88
2022-10-29T16:13:54.760Z,30.52
2022-10-29T16:16:25.204Z,28.80
2022-10-29T16:18:52.897Z,30.80
2022-10-29T16:21:25.963Z,32.47
2022-10-29T16:23:53.462Z,36.60
2022-10-29T16:26:24.083Z,31.38
2022-10-29T16:28:54.736Z,25.80
2022-10-29T16:31:29.189Z,31.90
2022-10-29T16:34:03.819Z,27.77
2022-10-29T16:36:31.052Z,34.67
2022-10-29T16:38:58.355Z,27.75
2022-10-29T16:41:25.689Z,31.65
2022-10-29T16:43:53.082Z,25.67
2022-10-29T16:46:20.281Z,29.85
2022-10-29T16:48:47.476Z,29.90
2022-10-29T16:51:14.577Z,31.20
2022-10-29T16:53:41.940Z,36.95
2022-10-29T16:56:09.183Z,34.83
2022-10-29T16:58:36.826Z,37.97
2022-10-29T17:01:10.577Z,34.75
2022-10-29T17:03:39.581Z,32.17
2022-10-29T17:06:10.234Z,29.52
2022-10-29T17:08:38.699Z,31.95
2022-10-29T17:11:10.197Z,35.50
2022-10-29T17:13:38.587Z,29.50
2022-10-29T17:16:14.811Z,28.35
2022-10-29T17:18:42.014Z,29.02
2022-10-29T17:21:09.212Z,32.20
2022-10-29T17:23:36.562Z,31.23
2022-10-29T17:26:04.331Z,30.83
2022-10-29T17:28:35.569Z,37.28
2022-10-29T17:31:06.814Z,35.60
2022-10-29T17:33:34.510Z,33.85
2022-10-29T17:36:15.630Z,37.05
2022-10-29T17:38:43.047Z,42.63
2022-10-29T17:41:10.341Z,37.83
2022-10-29T17:43:37.796Z,38.63
2022-10-29T17:46:05.810Z,45.50
2022-10-29T17:48:33.649Z,43.33
2022-10-29T17:51:03.531Z,36.45
2022-10-29T17:53:31.950Z,38.75
2022-10-29T17:56:01.035Z,36.53
2022-10-29T17:58:29.142Z,34.60
2022-10-29T18:01:08.055Z,31.42
2022-10-29T18:03:36.983Z,37.25
2022-10-29T18:06:08.320Z,30.90
2022-10-29T18:08:41.955Z,32.60
2022-10-29T18:11:12.508Z,37.42
2022-10-29T18:13:42.685Z,33.95
2022-10-29T18:16:12.940Z,33.05
2022-10-29T18:18:54.488Z,30.00
2022-10-29T18:21:29.754Z,32.78
2022-10-29T18:23:58.184Z,32.92
2022-10-29T18:26:32.194Z,35.03
2022-10-29T18:29:02.802Z,32.38
2022-10-29T18:31:31.592Z,36.10
2022-10-29T18:34:02.974Z,33.83
2022-10-29T18:36:30.448Z,37.88
2022-10-29T18:38:59.889Z,34.97
2022-10-29T18:41:27.340Z,35.72
2022-10-29T18:43:55.458Z,46.05
2022-10-29T18:46:23.067Z,40.47
2022-10-29T18:48:51.375Z,39.38
2022-10-29T18:51:39.713Z,35.60
2022-10-29T18:54:07.786Z,40.92
2022-10-29T18:56:35.704Z,43.05
2022-10-29T18:59:03.829Z,43.45
2022-10-29T19:01:34.689Z,36.28
2022-10-29T19:04:06.344Z,35.35
2022-10-29T19:06:36.682Z,38.47
2022-10-29T19:09:07.516Z,42.28
2022-10-29T19:11:35.173Z,39.08
2022-10-29T19:14:06.457Z,41.40
2022-10-29T19:16:36.708Z,45.63
2022-10-29T19:19:12.903Z,39.08
2022-10-29T19:21:42.310Z,39.95
2022-10-29T19:24:14.575Z,39.42
2022-10-29T19:26:42.351Z,36.70
2022-10-29T19:29:12.874Z,36.08
2022-10-29T19:31:40.751Z,32.58
2022-10-29T19:34:08.641Z,36.33
2022-10-29T19:36:40.300Z,40.92
2022-10-29T19:39:08.418Z,47.30
2022-10-29T19:41:36.045Z,42.60
2022-10-29T19:44:04.241Z,40.90
2022-10-29T19:46:32.220Z,47.70
2022-10-29T19:49:01.118Z,49.10
2022-10-29T19:51:29.908Z,42.35
2022-10-29T19:53:58.703Z,41.70
2022-10-29T19:56:26.218Z,48.75
2022-10-29T19:58:54.210Z,41.67
2022-10-29T20:01:21.891Z,47.40
2022-10-29T20:03:49.311Z,43.13
2022-10-29T20:06:18.112Z,43.13
2022-10-29T20:08:46.133Z,49.20
2022-10-29T20:11:13.944Z,51.22
2022-10-29T20:13:41.704Z,48.53
2022-10-29T20:16:12.855Z,52.38
2022-10-29T20:18:40.320Z,47.88
2022-10-29T20:21:08.267Z,46.05
2022-10-29T20:23:36.495Z,42.88
2022-10-29T20:26:04.954Z,37.03
2022-10-29T20:28:32.762Z,38.75
2022-10-29T20:31:37.196Z,43.10
2022-10-29T20:34:09.706Z,36.03
2022-10-29T20:36:37.879Z,42.70
2022-10-29T20:39:05.270Z,39.47
2022-10-29T20:41:32.687Z,41.78
2022-10-29T20:44:01.495Z,40.83
2022-10-29T20:46:29.539Z,36.17
2022-10-29T20:48:57.101Z,43.75
2022-10-29T20:51:25.289Z,37.58
2022-10-29T20:53:53.506Z,42.72
2022-10-29T20:56:24.145Z,39.03
2022-10-29T20:58:51.440Z,50.20
2022-10-29T21:01:21.716Z,42.35
2022-10-29T21:03:50.670Z,46.65
2022-10-29T21:06:19.166Z,46.72
2022-10-29T21:08:48.251Z,42.00
2022-10-29T21:11:17.509Z,52.40
2022-10-29T21:13:45.508Z,43.90
2022-10-29T21:16:20.934Z,53.75
2022-10-29T21:18:51.793Z,50.30
2022-10-29T21:21:19.417Z,46.00
2022-10-29T21:23:47.185Z,50.00
2022-10-29T21:26:20.657Z,55.92
2022-10-29T21:28:49.604Z,45.25
2022-10-29T21:31:18.036Z,59.75
2022-10-29T21:33:45.541Z,52.83
2022-10-29T21:36:16.409Z,61.75
2022-10-29T21:38:43.539Z,64.13
2022-10-29T21:41:11.256Z,86.90
2022-10-29T21:43:39.249Z,63.45
2022-10-29T21:46:07.099Z,54.00
2022-10-29T21:48:34.353Z,61.90
2022-10-29T21:51:11.733Z,71.97
2022-10-29T21:53:38.979Z,54.67
2022-10-29T21:56:09.794Z,54.85
2022-10-29T21:58:36.985Z,53.25
2022-10-29T22:01:06.873Z,60.00
2022-10-29T22:03:36.011Z,49.45
2022-10-29T22:06:11.166Z,83.25
2022-10-29T22:08:38.431Z,96.47
2022-10-29T22:13:51.981Z,67.88
2022-10-29T22:16:20.088Z,55.65
2022-10-29T22:18:47.429Z,86.72
2022-10-29T22:21:23.470Z,60.25
2022-10-29T22:23:56.731Z,52.25
2022-10-29T22:26:28.786Z,55.53
2022-10-29T22:28:56.173Z,66.65
2022-10-29T22:31:24.627Z,66.90
2022-10-29T22:33:51.990Z,47.03
2022-10-29T22:36:25.554Z,50.88
2022-10-29T22:38:58.402Z,49.28
2022-10-29T22:41:26.965Z,46.00
2022-10-29T22:44:03.098Z,48.80
2022-10-29T22:46:30.854Z,50.10
2022-10-29T22:48:58.176Z,48.17
2022-10-29T22:51:28.143Z,48.10
2022-10-29T22:53:55.436Z,52.13
2022-10-29T22:56:35.046Z,51.65
2022-10-29T22:59:03.598Z,51.00
2022-10-29T23:01:37.424Z,46.25
2022-10-29T23:04:07.580Z,47.15
2022-10-29T23:06:34.843Z,45.20
2022-10-29T23:09:02.006Z,45.72
2022-10-29T23:11:32.216Z,45.67
2022-10-29T23:14:01.532Z,37.40
2022-10-29T23:16:31.697Z,45.97
2022-10-29T23:19:02.372Z,36.10
2022-10-29T23:21:29.947Z,43.97
2022-10-29T23:23:57.171Z,37.53
2022-10-29T23:26:25.805Z,40.83
2022-10-29T23:28:53.018Z,36.90
2022-10-29T23:31:26.595Z,38.42
2022-10-29T23:33:56.289Z,41.30
2022-10-29T23:36:25.782Z,36.80
2022-10-29T23:39:01.523Z,36.17
2022-10-29T23:43:57.171Z,37.10
2022-10-29T23:46:24.364Z,42.75
2022-10-29T23:48:51.561Z,45.92
2022-10-29T23:51:18.909Z,37.05
2022-10-29T23:53:46.052Z,37.58
2022-10-29T23:56:13.088Z,41.97
2022-10-29T23:58:40.129Z,43.97
